Flight Track Log - Related Links

Times and Time Zones

All times are in EDT time to prevent confusion due to time zone crossing. See the N469S flight status page for this flight to view local times or setup timezone preferences in your user account.

Time Position Orientation Groundspeed Altitude Reporting Facility
EDT Latitude Longitude Course Direction KTS MPH feet Rate Location/Type
Thu 08:27:09 AM 39.3667 -84.5667 261° West 109 125 2,100  Level Cincinnati TRACON
Thu 08:28:15 AM 39.3833 -84.6000 303° West 128 147 3,000 789 Climbing Cincinnati TRACON
Thu 08:29:03 AM 39.3667 -84.6500 247° West 145 167 3,600 661 Climbing Cincinnati TRACON
Thu 08:30:04 AM 39.3500 -84.7000 247° West 151 174 4,200 714 Climbing Cincinnati TRACON
Thu 08:31:09 AM 39.3500 -84.7500 270° West 143 165 5,100 745 Climbing Cincinnati TRACON
Thu 08:32:00 AM 39.3105 -84.8684 261° West  Level FlightAware Approximate
Thu 08:32:21 AM 39.3333 -84.8167 252° West 144 166 5,900  Level Cincinnati TRACON
Thu 08:33:21 AM 39.3333 -84.8667 270° West 160 184 6,000 65 Climbing Cincinnati TRACON
Thu 08:33:54 AM 39.3303 -84.8942 262° West 156 180 6,000  Level Indianapolis Center
Thu 08:34:56 AM 39.3219 -84.9647 261° West 168 193 6,000  Level Indianapolis Center
Thu 08:35:58 AM 39.3161 -85.0242 263° West 167 192 6,000  Level Indianapolis Center
Thu 08:36:59 AM 39.3086 -85.0847 261° West 169 194 6,000  Level Indianapolis Center
Thu 08:38:01 AM 39.3011 -85.1433 261° West 166 191 6,000  Level Indianapolis Center
Thu 08:39:03 AM 39.2931 -85.2033 260° West 167 192 6,000  Level Indianapolis Center
Thu 08:40:05 AM 39.2853 -85.2608 260° West 164 189 6,000  Level Indianapolis Center
Thu 08:41:06 AM 39.2778 -85.3189 261° West 164 189 6,000  Level Indianapolis Center
Thu 08:42:08 AM 39.2706 -85.3761 261° West 162 186 6,000  Level Indianapolis Center
Thu 08:43:10 AM 39.2628 -85.4425 261° West 160 184 6,000  Level Indianapolis Center
Thu 08:44:11 AM 39.2556 -85.4989 261° West 158 182 6,000  Level Indianapolis Center
Thu 08:45:13 AM 39.2481 -85.5564 260° West 159 183 6,000  Level Indianapolis Center
Thu 08:46:15 AM 39.2411 -85.6139 261° West 161 185 6,000  Level Indianapolis Center
Thu 08:47:16 AM 39.2325 -85.6711 259° West 161 185 6,000  Level Indianapolis Center
Thu 08:48:18 AM 39.2256 -85.7303 261° West 163 188 6,000  Level Indianapolis Center
Thu 08:49:20 AM 39.2186 -85.7897 261° West 166 191 6,000  Level Indianapolis Center
Thu 08:50:22 AM 39.2103 -85.8506 260° West 170 196 6,000  Level Indianapolis Center
Thu 08:51:23 AM 39.2025 -85.9106 261° West 168 193 6,000  Level Indianapolis Center
Thu 08:52:25 AM 39.1936 -85.9800 261° West 168 193 6,000  Level Indianapolis Center
Thu 08:53:27 AM 39.1858 -86.0403 261° West 168 193 6,000  Level Indianapolis Center
Thu 08:54:29 AM 39.1783 -86.0997 261° West 167 192 6,000  Level Indianapolis Center
Thu 08:55:30 AM 39.1708 -86.1589 261° West 166 191 6,000  Level Indianapolis Center
Thu 08:56:32 AM 39.1628 -86.2164 260° West 164 189 6,000  Level Indianapolis Center
Thu 08:57:34 AM 39.1550 -86.2744 260° West 163 188 6,000  Level Indianapolis Center
Thu 08:58:36 AM 39.1475 -86.3344 261° West 166 191 6,000  Level Indianapolis Center
Thu 08:59:38 AM 39.1394 -86.3928 260° West 166 191 6,000  Level Indianapolis Center
Thu 09:00:40 AM 39.1297 -86.4611 260° West 165 190 6,000  Level Indianapolis Center
Thu 09:01:41 AM 39.1222 -86.5189 261° West 163 188 6,000  Level Indianapolis Center
Thu 09:02:43 AM 39.1150 -86.5772 261° West 164 189 6,000  Level Indianapolis Center
Thu 09:03:45 AM 39.1075 -86.6289 259° West 164 189 6,000  Level Indianapolis Center
Thu 09:04:47 AM 39.0986 -86.6978 261° West 163 188 6,000  Level Indianapolis Center
Thu 09:05:49 AM 39.0906 -86.7547 260° West 162 186 6,000  Level Indianapolis Center
Thu 09:06:51 AM 39.0831 -86.8125 261° West 163 188 6,000  Level Indianapolis Center
Thu 09:07:53 AM 39.0756 -86.8703 261° West 164 189 6,000  Level Indianapolis Center
Thu 09:08:55 AM 39.0672 -86.9278 259° West 164 189 6,000  Level Indianapolis Center
Thu 09:09:57 AM 39.0592 -86.9864 260° West 165 190 6,000  Level Indianapolis Center
Thu 09:10:59 AM 39.0517 -87.0444 261° West 165 190 6,000  Level Indianapolis Center
Thu 09:12:00 AM 39.0419 -87.1125 260° West 162 186 6,000  Level Indianapolis Center
Thu 09:13:02 AM 39.0333 -87.1708 259° West 164 189 6,000  Level Indianapolis Center
Thu 09:14:04 AM 39.0261 -87.2294 261° West 165 190 6,000  Level Indianapolis Center
Thu 09:15:06 AM 39.0175 -87.2864 259° West 164 189 6,000  Level Indianapolis Center
Thu 09:16:08 AM 39.0092 -87.3450 260° West 165 190 6,000  Level Indianapolis Center
Thu 09:17:10 AM 39.0014 -87.4036 260° West 166 191 6,000  Level Indianapolis Center
Thu 09:18:12 AM 38.9939 -87.4622 261° West 167 192 6,000  Level Indianapolis Center
Thu 09:19:14 AM 38.9839 -87.5300 259° West 162 186 6,000  Level Indianapolis Center
Thu 09:20:16 AM 38.9747 -87.5886 259° West 166 191 6,000  Level Indianapolis Center
Thu 09:21:18 AM 38.9667 -87.6461 260° West 164 189 6,000  Level Indianapolis Center
Thu 09:22:20 AM 38.9581 -87.7025 259° West 162 186 6,000 39 Level Indianapolis Center
Thu 09:23:53 AM 38.9456 -87.7956 260° West 164 189 6,100  Climbing Kansas City Center
Thu 09:24:24 AM 38.9408 -87.8192 256° West 166 191 6,000 -65 Descending Indianapolis Center
Thu 09:25:26 AM 38.9322 -87.8758 259° West 163 188 6,000  Level Indianapolis Center
Thu 09:26:28 AM 38.9231 -87.9433 260° West 161 185 6,000  Level Indianapolis Center
Thu 09:27:30 AM 38.9150 -87.9997 260° West 160 184 6,000  Level Indianapolis Center
Thu 09:28:32 AM 38.9064 -88.0575 259° West 162 186 6,000  Level Indianapolis Center
Thu 09:29:34 AM 38.8989 -88.1150 261° West 163 188 6,000  Level Indianapolis Center
Thu 09:30:36 AM 38.8900 -88.1711 259° West 162 186 6,000  Level Indianapolis Center
Thu 09:31:38 AM 38.8806 -88.2278 258° West 160 184 6,000  Level Indianapolis Center
Thu 09:32:40 AM 38.8722 -88.2842 259° West 161 185 6,000 67 Level Indianapolis Center
Thu 09:33:08 AM 38.8675 -88.3194 260° West 163 188 6,100 67 Climbing Kansas City Center
Thu 09:34:09 AM 38.8586 -88.3767 259° West 164 189 6,100  Level Kansas City Center
Thu 09:35:13 AM 38.8497 -88.4333 259° West 162 186 6,100  Level Kansas City Center
Thu 09:36:13 AM 38.8411 -88.4889 259° West 159 183 6,100  Level Kansas City Center
Thu 09:37:16 AM 38.8317 -88.5453 258° West 160 184 6,100  Level Kansas City Center
Thu 09:38:18 AM 38.8239 -88.6019 260° West 161 185 6,100  Level Kansas City Center
Thu 09:39:18 AM 38.8156 -88.6556 259° West 162 186 6,100  Level Kansas City Center
Thu 09:40:23 AM 38.8050 -88.7236 259° West 161 185 6,100 -48 Level Kansas City Center
Thu 09:41:23 AM 38.7953 -88.7800 258° West 162 186 6,000 -148 Descending Kansas City Center
Thu 09:42:25 AM 38.7858 -88.8397 259° West 170 196 5,800 -195 Descending Kansas City Center
Thu 09:43:26 AM 38.7775 -88.8975 260° West 167 192 5,600 -197 Descending Kansas City Center
Thu 09:44:27 AM 38.7683 -88.9547 258° West 165 190 5,400 -192 Descending Kansas City Center
Thu 09:45:31 AM 38.7569 -89.0206 258° West 167 192 5,200 -194 Descending Kansas City Center
Thu 09:46:31 AM 38.7481 -89.0781 259° West 164 189 5,000 -200 Descending Kansas City Center
Thu 09:47:31 AM 38.7389 -89.1403 259° West 165 190 4,800 -268 Descending Kansas City Center
Thu 09:48:23 AM 38.7317 -89.1322 139° Southeast 164 189 4,500 -329 Descending FAA TRACON SMA TRACON (SMA)
Thu 09:48:44 AM 38.7289 -89.1503 259° West 167 192 4,400 -293 Descending FAA TRACON SMA TRACON (SMA)
Thu 09:49:04 AM 38.7250 -89.1686 255° West 169 194 4,300 -150 Descending FAA TRACON SMA TRACON (SMA)
Thu 09:49:24 AM 38.7214 -89.1911 258° West 171 197 4,300 -150 Level FAA TRACON SMA TRACON (SMA)
Thu 09:49:44 AM 38.7189 -89.2097 260° West 170 196 4,200 -154 Descending FAA TRACON SMA TRACON (SMA)
Thu 09:50:03 AM 38.7153 -89.2283 256° West 172 198 4,200 -200 Level FAA TRACON SMA TRACON (SMA)
Thu 09:50:44 AM 38.7075 -89.2703 257° West 176 203 4,000 -197 Descending FAA TRACON SMA TRACON (SMA)
Thu 09:51:04 AM 38.7042 -89.2889 257° West 176 203 4,000  Level FAA TRACON SMA TRACON (SMA)
Thu 09:51:25 AM 38.7025 -89.3117 265° West 170 196 4,000  Level FAA TRACON SMA TRACON (SMA)
Thu 09:51:44 AM 38.6983 -89.3300 254° West 170 196 4,000  Level FAA TRACON SMA TRACON (SMA)
Thu 09:52:04 AM 38.6956 -89.3483 259° West 170 196 4,000  Level FAA TRACON SMA TRACON (SMA)
Thu 09:52:24 AM 38.6908 -89.3708 255° West 170 196 4,000  Level FAA TRACON SMA TRACON (SMA)
Thu 09:52:42 AM 38.6872 -89.3892 256° West 171 197 4,000  Level FAA TRACON SMA TRACON (SMA)
Thu 09:53:03 AM 38.6850 -89.4072 261° West 170 196 4,000  Level FAA TRACON SMA TRACON (SMA)
Thu 09:53:23 AM 38.6811 -89.4303 258° West 171 197 4,000  Level FAA TRACON SMA TRACON (SMA)
Thu 09:53:43 AM 38.6789 -89.4481 261° West 169 194 4,000  Level FAA TRACON SMA TRACON (SMA)
Thu 09:54:04 AM 38.6761 -89.4661 259° West 168 193 4,000  Level FAA TRACON SMA TRACON (SMA)
Thu 09:54:24 AM 38.6706 -89.4892 253° West 169 194 4,000  Level FAA TRACON SMA TRACON (SMA)
Thu 09:54:44 AM 38.6669 -89.5069 255° West 169 194 4,000 -150 Level FAA TRACON SMA TRACON (SMA)
Thu 09:55:04 AM 38.6639 -89.5292 260° West 168 193 3,900 -316 Descending FAA TRACON SMA TRACON (SMA)
Thu 09:55:22 AM 38.6600 -89.5478 255° West 171 197 3,800 -308 Descending FAA TRACON SMA TRACON (SMA)
Thu 09:55:43 AM 38.6556 -89.5667 253° West 176 203 3,700 -585 Descending FAA TRACON SMA TRACON (SMA)
Thu 09:56:03 AM 38.6528 -89.5856 259° West 176 203 3,400 -750 Descending FAA TRACON SMA TRACON (SMA)
Thu 09:56:23 AM 38.6494 -89.6092 260° West 178 205 3,200 -600 Descending FAA TRACON SMA TRACON (SMA)
Thu 09:56:43 AM 38.6458 -89.6292 257° West 182 209 3,000 -450 Descending FAA TRACON SMA TRACON (SMA)
Thu 09:57:03 AM 38.6433 -89.6481 260° West 179 206 2,900 -146 Descending FAA TRACON SMA TRACON (SMA)
Thu 09:57:24 AM 38.6392 -89.6717 257° West 176 203 2,900  Level FAA TRACON SMA TRACON (SMA)
Thu 09:57:44 AM 38.6364 -89.6894 259° West 170 196 2,900  Level FAA TRACON SMA TRACON (SMA)
Thu 09:58:04 AM 38.6336 -89.7075 259° West 168 193 2,900  Level FAA TRACON SMA TRACON (SMA)
Thu 09:58:23 AM 38.6297 -89.7294 257° West 166 191 2,900  Level FAA TRACON SMA TRACON (SMA)
Thu 09:58:43 AM 38.6269 -89.7469 259° West 163 188 2,900  Level FAA TRACON SMA TRACON (SMA)
Thu 09:59:03 AM 38.6236 -89.7642 256° West 163 188 2,900  Level FAA TRACON SMA TRACON (SMA)
Thu 09:59:22 AM 38.6197 -89.7858 257° West 163 188 2,900  Level FAA TRACON SMA TRACON (SMA)
Thu 09:59:43 AM 38.6169 -89.8028 258° West 160 184 2,900  Level FAA TRACON SMA TRACON (SMA)
Thu 10:00:06 AM 38.6133 -89.8194 255° West 159 183 2,900  Level FAA TRACON SMA TRACON (SMA)
Thu 10:00:26 AM 38.6106 -89.8403 260° West 157 181 2,900  Level FAA TRACON SMA TRACON (SMA)
Thu 10:00:43 AM 38.6078 -89.8569 258° West 156 180 2,900  Level FAA TRACON SMA TRACON (SMA)
Thu 10:01:03 AM 38.6047 -89.8731 256° West 155 178 2,900 -150 Level FAA TRACON SMA TRACON (SMA)
Thu 10:01:23 AM 38.6017 -89.8942 260° West 156 180 2,800 -462 Descending FAA TRACON SMA TRACON (SMA)
Thu 10:01:42 AM 38.5975 -89.9114 253° West 162 186 2,600 -600 Descending FAA TRACON SMA TRACON (SMA)
Thu 10:02:03 AM 38.5922 -89.9297 250° West 170 196 2,400 -585 Descending FAA TRACON SMA TRACON (SMA)
Thu 10:02:23 AM 38.5867 -89.9514 252° West 170 196 2,200 -600 Descending FAA TRACON SMA TRACON (SMA)
Thu 10:02:43 AM 38.5831 -89.9692 255° West 168 193 2,000 -450 Descending FAA TRACON SMA TRACON (SMA)
Thu 10:03:03 AM 38.5781 -89.9861 249° West 167 192 1,900 -450 Descending FAA TRACON SMA TRACON (SMA)
Thu 10:03:23 AM 38.5719 -90.0058 248° West 157 181 1,700 -750 Descending FAA TRACON SMA TRACON (SMA)
Thu 10:03:43 AM 38.5672 -90.0206 248° West 150 173 1,400 -600 Descending FAA TRACON SMA TRACON (SMA)
Thu 10:04:03 AM 38.5617 -90.0344 243° Southwest 144 166 1,300 -150 Descending FAA TRACON SMA TRACON (SMA)
Thu 10:04:23 AM 38.5606 -90.0378 247° West 143 165 1,300  Level FAA TRACON SMA TRACON (SMA)
Thu 10:04:43 AM 38.5606 -90.0378 159° South 143 165 1,300  Level FAA TRACON SMA TRACON (SMA)
Thu 10:05:23 AM 38.5606 -90.0378 159° South 143 165 1,300  Level FAA TRACON SMA TRACON (SMA)
Thu 10:08:00 AM 38.5667 -90.1460 270° West  Level FlightAware Approximate

Login

Don't have an account? Register now (free) for customized features, flight alerts, and more!